createdAt,value
2022-12-24T00:02:22.857Z,99062.53
2022-12-24T00:04:57.157Z,99063.88
2022-12-24T00:07:30.821Z,99055.41
2022-12-24T00:10:00.402Z,99053.44
2022-12-24T00:12:29.986Z,99067.41
2022-12-24T00:14:59.451Z,99050.63
2022-12-24T00:17:28.997Z,99025.13
2022-12-24T00:19:58.668Z,99005.22
2022-12-24T00:22:28.486Z,99015.06
2022-12-24T00:24:58.010Z,99011.72
2022-12-24T00:27:27.515Z,98995.69
2022-12-24T00:29:57.123Z,98983.91
2022-12-24T00:32:26.625Z,98977.81
2022-12-24T00:34:56.151Z,98989.16
2022-12-24T00:37:25.685Z,99000.59
2022-12-24T00:39:55.244Z,99010.41
2022-12-24T00:42:25.660Z,99006.31
2022-12-24T00:44:55.182Z,99003.03
2022-12-24T00:47:24.699Z,99005.59
2022-12-24T00:49:54.297Z,98998.63
2022-12-24T00:52:23.905Z,98994.59
2022-12-24T00:54:53.415Z,98996.22
2022-12-24T00:57:22.915Z,98997.84
2022-12-24T00:59:52.421Z,98989.31
2022-12-24T01:02:22.502Z,98996.66
2022-12-24T01:05:10.411Z,98998.75
2022-12-24T01:07:45.229Z,99005.50
2022-12-24T01:10:19.989Z,99012.19
2022-12-24T01:12:49.537Z,99031.66
2022-12-24T01:15:19.269Z,99041.94
2022-12-24T01:17:48.912Z,99071.13
2022-12-24T01:20:19.121Z,99066.22
2022-12-24T01:22:49.066Z,99053.50
2022-12-24T01:25:18.836Z,99048.09
2022-12-24T01:27:48.380Z,99040.00
2022-12-24T01:30:17.986Z,99029.91
2022-12-24T01:32:47.607Z,99010.63
2022-12-24T01:35:17.900Z,98992.03
2022-12-24T01:37:48.271Z,98986.72
2022-12-24T01:40:37.280Z,98985.81
2022-12-24T01:43:23.885Z,98966.66
2022-12-24T01:46:04.076Z,98964.44
2022-12-24T01:48:46.691Z,98955.44
2022-12-24T01:51:37.641Z,98958.59
2022-12-24T01:54:22.756Z,98964.56
2022-12-24T01:57:37.429Z,98950.88
2022-12-24T02:00:14.623Z,98946.97
2022-12-24T02:02:49.783Z,98932.16
2022-12-24T02:05:33.759Z,98926.38
2022-12-24T02:08:05.949Z,98915.97
2022-12-24T02:10:35.631Z,98907.50
2022-12-24T02:13:07.487Z,98889.75
2022-12-24T02:16:28.407Z,98893.31
2022-12-24T02:19:28.329Z,98908.56
2022-12-24T02:22:22.977Z,98913.06
2022-12-24T02:25:10.249Z,98927.22
2022-12-24T02:28:20.250Z,98944.19
2022-12-24T02:31:06.818Z,98948.25
2022-12-24T02:33:45.692Z,98939.31
2022-12-24T02:36:35.085Z,98945.00
2022-12-24T02:39:21.391Z,98938.72
2022-12-24T02:42:06.590Z,98952.03
2022-12-24T02:44:50.568Z,98945.91
2022-12-24T02:47:26.491Z,98937.94
2022-12-24T02:49:56.150Z,98947.72
2022-12-24T02:52:34.235Z,98952.03
2022-12-24T02:55:12.899Z,98968.63
2022-12-24T02:58:22.787Z,98959.47
2022-12-24T03:01:36.621Z,98959.69
2022-12-24T03:04:53.444Z,98959.22
2022-12-24T03:08:00.371Z,98966.50
2022-12-24T03:10:43.950Z,98966.59
2022-12-24T03:13:18.979Z,98953.28
2022-12-24T03:15:50.889Z,98941.38
2022-12-24T03:18:29.486Z,98940.91
2022-12-24T03:21:24.785Z,98927.44
2022-12-24T03:23:56.284Z,98927.75
2022-12-24T03:26:29.048Z,98938.84
2022-12-24T03:28:59.023Z,98930.53
2022-12-24T03:31:43.325Z,98932.03
2022-12-24T03:34:14.835Z,98924.63
2022-12-24T03:36:45.049Z,98926.16
2022-12-24T03:39:14.606Z,98928.06
2022-12-24T03:41:44.223Z,98943.97
2022-12-24T03:44:13.670Z,98927.81
2022-12-24T03:46:43.238Z,98934.88
2022-12-24T03:49:12.844Z,98940.50
2022-12-24T03:51:42.291Z,98936.22
2022-12-24T03:54:11.768Z,98936.03
2022-12-24T03:56:41.335Z,98941.81
2022-12-24T03:59:10.820Z,98939.31
2022-12-24T04:01:40.441Z,98943.13
2022-12-24T04:04:10.095Z,98952.63
2022-12-24T04:06:39.603Z,98941.06
2022-12-24T04:09:09.154Z,98942.59
2022-12-24T04:11:38.701Z,98954.47
2022-12-24T04:14:08.284Z,98958.38
2022-12-24T04:16:38.028Z,98965.97
2022-12-24T04:19:07.613Z,98955.84
2022-12-24T04:21:37.202Z,98957.97
2022-12-24T04:24:07.105Z,98956.69
2022-12-24T04:26:36.671Z,98944.81
2022-12-24T04:29:06.202Z,98949.97
2022-12-24T04:31:35.940Z,98950.25
2022-12-24T04:34:05.550Z,98937.53
2022-12-24T04:36:35.162Z,98960.22
2022-12-24T04:39:04.755Z,98954.63
2022-12-24T04:41:34.374Z,98954.47
2022-12-24T04:44:04.121Z,98951.34
2022-12-24T04:46:33.886Z,98951.53
2022-12-24T04:49:03.543Z,98967.88
2022-12-24T04:51:33.120Z,98966.31
2022-12-24T04:54:02.952Z,98959.34
2022-12-24T04:56:33.700Z,98962.03
2022-12-24T04:59:03.410Z,98950.69
2022-12-24T05:01:33.950Z,98957.28
2022-12-24T05:04:03.878Z,98946.47
2022-12-24T05:06:35.186Z,98958.09
2022-12-24T05:09:04.920Z,98968.81
2022-12-24T05:11:34.480Z,98969.22
2022-12-24T05:14:04.364Z,98970.38
2022-12-24T05:16:33.970Z,98978.44
2022-12-24T05:19:03.606Z,98981.88
2022-12-24T05:21:33.279Z,98980.47
2022-12-24T05:24:21.363Z,98986.66
2022-12-24T05:26:57.048Z,98991.56
2022-12-24T05:29:26.698Z,98998.44
2022-12-24T05:31:56.294Z,98993.72
2022-12-24T05:34:25.856Z,98984.09
2022-12-24T05:36:55.433Z,98986.59
2022-12-24T05:39:23.159Z,98982.53
2022-12-24T05:41:52.702Z,98992.50
2022-12-24T05:44:22.347Z,98984.72
2022-12-24T05:46:52.419Z,98983.56
2022-12-24T05:49:22.022Z,98982.63
2022-12-24T05:51:51.564Z,98992.16
2022-12-24T05:54:21.118Z,98989.03
2022-12-24T05:56:50.720Z,98987.44
2022-12-24T05:59:20.193Z,98992.78
2022-12-24T06:01:49.790Z,98996.06
2022-12-24T06:04:24.606Z,99002.09
2022-12-24T06:06:57.849Z,99004.84
2022-12-24T06:09:27.413Z,99002.97
2022-12-24T06:11:56.929Z,99003.44
2022-12-24T06:14:26.576Z,99015.66
2022-12-24T06:16:56.162Z,99014.38
2022-12-24T06:19:25.807Z,99012.66
2022-12-24T06:21:55.380Z,99030.28
2022-12-24T06:24:25.067Z,99026.16
2022-12-24T06:26:54.566Z,99019.13
2022-12-24T06:29:25.625Z,99028.38
2022-12-24T06:31:56.719Z,99019.59
2022-12-24T06:34:26.354Z,99023.72
2022-12-24T06:36:55.990Z,99039.56
2022-12-24T06:39:25.930Z,99035.44
2022-12-24T06:41:55.669Z,99035.66
2022-12-24T06:44:25.339Z,99032.78
2022-12-24T06:46:53.170Z,99034.88
2022-12-24T06:49:22.817Z,99033.00
2022-12-24T06:51:52.422Z,99034.47
2022-12-24T06:54:22.009Z,99039.03
2022-12-24T06:56:51.578Z,99047.81
2022-12-24T06:59:21.236Z,99051.41
2022-12-24T07:01:50.828Z,99065.44
2022-12-24T07:04:20.885Z,99062.69
2022-12-24T07:06:50.598Z,99078.09
2022-12-24T07:09:20.180Z,99074.25
2022-12-24T07:11:49.749Z,99080.97
2022-12-24T07:14:19.421Z,99098.53
2022-12-24T07:16:55.300Z,99098.81
2022-12-24T07:19:28.083Z,99094.88
2022-12-24T07:21:57.619Z,99092.03
2022-12-24T07:24:27.081Z,99091.44
2022-12-24T07:26:56.572Z,99096.66
2022-12-24T07:29:26.078Z,99102.97
2022-12-24T07:31:55.611Z,99095.22
2022-12-24T07:34:25.260Z,99097.13
2022-12-24T07:36:54.763Z,99108.13
2022-12-24T07:39:24.387Z,99096.22
2022-12-24T07:41:53.886Z,99103.22
2022-12-24T07:44:23.416Z,99100.03
2022-12-24T07:46:52.993Z,99093.31
2022-12-24T07:49:22.653Z,99102.97
2022-12-24T07:51:52.151Z,99113.97
2022-12-24T07:54:21.704Z,99113.13
2022-12-24T07:56:51.240Z,99113.44
2022-12-24T07:59:22.152Z,99123.25
2022-12-24T08:01:51.980Z,99131.09
2022-12-24T08:04:21.827Z,99128.97
2022-12-24T08:06:52.087Z,99130.78
2022-12-24T08:09:21.581Z,99129.44
2022-12-24T08:11:52.458Z,99134.38
2022-12-24T08:14:22.257Z,99140.97
2022-12-24T08:16:51.839Z,99142.78
2022-12-24T08:19:21.558Z,99149.28
2022-12-24T08:21:52.068Z,99152.00
2022-12-24T08:24:21.736Z,99153.69
2022-12-24T08:26:51.313Z,99160.13
2022-12-24T08:29:20.919Z,99171.97
2022-12-24T08:31:50.673Z,99180.25
2022-12-24T08:34:20.265Z,99198.34
2022-12-24T08:36:49.823Z,99193.66
2022-12-24T08:39:19.500Z,99217.31
2022-12-24T08:41:49.102Z,99222.28
2022-12-24T08:44:18.861Z,99226.53
2022-12-24T08:46:48.588Z,99228.53
2022-12-24T08:49:18.179Z,99231.47
2022-12-24T08:51:47.642Z,99232.16
2022-12-24T08:54:17.103Z,99243.00
2022-12-24T08:56:46.736Z,99246.69
2022-12-24T08:59:16.271Z,99244.03
2022-12-24T09:01:45.903Z,99251.28
2022-12-24T09:04:15.588Z,99248.53
2022-12-24T09:06:45.147Z,99248.00
2022-12-24T09:09:14.622Z,99244.03
2022-12-24T09:11:45.344Z,99242.13
2022-12-24T09:14:14.830Z,99239.69
2022-12-24T09:16:43.510Z,99236.94
2022-12-24T09:19:13.049Z,99238.53
2022-12-24T09:21:42.681Z,99231.19
2022-12-24T09:24:12.133Z,99238.91
2022-12-24T09:26:42.464Z,99232.84
2022-12-24T09:29:12.118Z,99231.28
2022-12-24T09:31:42.123Z,99253.25
2022-12-24T09:34:11.681Z,99262.53
2022-12-24T09:36:41.176Z,99258.91
2022-12-24T09:39:10.684Z,99260.13
2022-12-24T09:42:09.422Z,99272.78
2022-12-24T09:45:15.919Z,99269.75
2022-12-24T09:48:04.426Z,99268.63
2022-12-24T09:50:38.809Z,99275.03
2022-12-24T09:53:49.181Z,99282.78
2022-12-24T09:56:45.645Z,99286.06
2022-12-24T09:59:27.306Z,99281.84
2022-12-24T10:01:56.422Z,99279.09
2022-12-24T10:04:30.715Z,99283.44
2022-12-24T10:07:11.389Z,99289.03
2022-12-24T10:10:25.019Z,99284.38
2022-12-24T10:14:03.800Z,99274.34
2022-12-24T10:17:02.225Z,99284.09
2022-12-24T10:20:10.478Z,99286.22
2022-12-24T10:23:18.422Z,99293.53
2022-12-24T10:26:25.800Z,99285.03
2022-12-24T10:29:07.323Z,99292.69
2022-12-24T10:32:08.412Z,99300.66
2022-12-24T10:35:16.064Z,99313.00
2022-12-24T10:37:51.933Z,99309.50
2022-12-24T10:40:44.328Z,99309.25
2022-12-24T10:43:25.991Z,99319.09
2022-12-24T10:46:14.746Z,99311.69
2022-12-24T10:48:56.943Z,99322.97
2022-12-24T10:51:42.136Z,99319.91
2022-12-24T10:54:27.448Z,99310.09
2022-12-24T10:57:02.895Z,99313.13
2022-12-24T10:59:50.770Z,99315.75
2022-12-24T11:02:30.632Z,99321.72
2022-12-24T11:05:02.325Z,99321.72
2022-12-24T11:07:33.054Z,99319.50
2022-12-24T11:10:08.419Z,99322.41
2022-12-24T11:13:00.177Z,99321.53
2022-12-24T11:15:35.767Z,99330.13
2022-12-24T11:18:15.096Z,99325.16
2022-12-24T11:20:52.930Z,99327.13
2022-12-24T11:23:24.003Z,99324.78
2022-12-24T11:25:54.242Z,99319.94
2022-12-24T11:28:33.146Z,99331.34
2022-12-24T11:31:20.425Z,99335.34
2022-12-24T11:33:53.499Z,99332.72
2022-12-24T11:36:26.621Z,99334.88
2022-12-24T11:38:58.310Z,99342.84
2022-12-24T11:41:28.486Z,99343.47
2022-12-24T11:44:07.920Z,99343.50
2022-12-24T11:46:52.407Z,99355.09
2022-12-24T11:49:30.195Z,99356.28
2022-12-24T11:52:10.624Z,99361.97
2022-12-24T11:55:16.666Z,99352.50
2022-12-24T11:58:39.785Z,99356.41
2022-12-24T12:01:33.595Z,99362.72
2022-12-24T12:04:17.636Z,99354.34
2022-12-24T12:06:55.642Z,99360.69
2022-12-24T12:09:40.181Z,99361.03
2022-12-24T12:12:26.456Z,99364.16
2022-12-24T12:15:21.706Z,99370.47
2022-12-24T12:18:19.864Z,99361.56
2022-12-24T12:21:17.560Z,99363.72
2022-12-24T12:24:07.126Z,99371.78
2022-12-24T12:26:36.401Z,99376.28
2022-12-24T12:29:11.105Z,99389.41
2022-12-24T12:31:48.722Z,99396.84
2022-12-24T12:34:34.262Z,99401.03
2022-12-24T12:37:20.809Z,99393.81
2022-12-24T12:39:49.305Z,99396.63
2022-12-24T12:42:40.623Z,99407.25
2022-12-24T12:45:50.052Z,99407.91
2022-12-24T12:49:07.711Z,99409.84
2022-12-24T12:52:17.355Z,99416.63
2022-12-24T12:55:02.724Z,99417.25
2022-12-24T12:57:37.802Z,99422.63
2022-12-24T13:00:13.686Z,99427.06
2022-12-24T13:02:51.993Z,99428.69
2022-12-24T13:05:59.583Z,99434.16
2022-12-24T13:09:16.875Z,99434.03
2022-12-24T13:12:06.330Z,99432.00
2022-12-24T13:15:12.493Z,99438.75
2022-12-24T13:17:49.611Z,99435.75
2022-12-24T13:20:29.893Z,99441.72
2022-12-24T13:23:19.180Z,99438.50
2022-12-24T13:25:54.978Z,99442.16
2022-12-24T13:28:24.320Z,99446.63
2022-12-24T13:31:12.038Z,99457.94
2022-12-24T13:33:40.680Z,99465.56
2022-12-24T13:36:16.737Z,99473.63
2022-12-24T13:38:57.326Z,99478.91
2022-12-24T13:41:40.199Z,99479.13
2022-12-24T13:44:13.584Z,99475.41
2022-12-24T13:47:13.165Z,99475.31
2022-12-24T13:49:46.623Z,99479.47
2022-12-24T13:52:22.662Z,99491.97
2022-12-24T13:54:59.095Z,99487.44
2022-12-24T13:57:54.109Z,99497.94
2022-12-24T14:00:25.057Z,99498.38
2022-12-24T14:03:41.931Z,99502.19
2022-12-24T14:06:38.226Z,99507.75
2022-12-24T14:09:25.161Z,99507.09
2022-12-24T14:11:59.825Z,99507.28
2022-12-24T14:14:41.655Z,99512.88
2022-12-24T14:17:26.646Z,99516.91
2022-12-24T14:20:01.314Z,99516.59
2022-12-24T14:22:38.960Z,99522.50
2022-12-24T14:25:24.018Z,99524.44
2022-12-24T14:28:07.800Z,99535.56
2022-12-24T14:30:36.526Z,99530.38
2022-12-24T14:33:05.347Z,99533.13
2022-12-24T14:35:39.837Z,99532.88
2022-12-24T14:38:23.060Z,99531.16
2022-12-24T14:41:29.686Z,99541.69
2022-12-24T14:44:40.965Z,99548.63
2022-12-24T14:47:38.948Z,99543.19
2022-12-24T14:50:35.066Z,99555.19
2022-12-24T14:53:13.548Z,99552.63
2022-12-24T14:55:50.279Z,99557.31
2022-12-24T14:58:34.093Z,99574.09
2022-12-24T15:01:22.031Z,99563.53
2022-12-24T15:04:11.874Z,99575.03
2022-12-24T15:06:49.807Z,99569.91
2022-12-24T15:09:29.593Z,99585.41
2022-12-24T15:12:03.562Z,99578.69
2022-12-24T15:14:43.166Z,99585.41
2022-12-24T15:17:13.542Z,99587.13
2022-12-24T15:19:45.779Z,99597.41
2022-12-24T15:22:30.246Z,99590.56
2022-12-24T15:24:58.054Z,99592.19
2022-12-24T15:27:34.256Z,99600.00
2022-12-24T15:30:25.419Z,99597.19
2022-12-24T15:32:58.722Z,99601.13
2022-12-24T15:35:55.493Z,99611.09
2022-12-24T15:38:37.935Z,99606.13
2022-12-24T15:41:33.799Z,99617.56
2022-12-24T15:44:05.766Z,99616.03
2022-12-24T15:46:35.583Z,99616.78
2022-12-24T15:49:04.894Z,99624.63
2022-12-24T15:51:40.239Z,99628.38
2022-12-24T15:54:20.023Z,99633.41
2022-12-24T15:56:49.719Z,99639.97
2022-12-24T15:59:31.285Z,99638.00
2022-12-24T16:02:41.859Z,99629.66
2022-12-24T16:05:34.001Z,99638.59
2022-12-24T16:08:26.070Z,99647.91
2022-12-24T16:11:17.682Z,99638.59
2022-12-24T16:13:59.680Z,99648.31
2022-12-24T16:17:02.886Z,99641.88
2022-12-24T16:19:40.132Z,99636.28
2022-12-24T16:22:35.493Z,99636.16
2022-12-24T16:25:27.403Z,99643.44
2022-12-24T16:27:59.959Z,99643.00
2022-12-24T16:30:30.145Z,99650.41
2022-12-24T16:32:58.776Z,99644.44
2022-12-24T16:35:36.644Z,99665.66
2022-12-24T16:38:06.254Z,99659.41
2022-12-24T16:40:35.934Z,99655.88
2022-12-24T16:43:23.757Z,99660.28
2022-12-24T16:45:53.937Z,99661.63
2022-12-24T16:48:25.839Z,99660.78
2022-12-24T16:50:55.450Z,99660.25
2022-12-24T16:53:25.095Z,99669.56
2022-12-24T16:55:55.645Z,99666.00
2022-12-24T16:58:25.147Z,99663.03
2022-12-24T17:00:54.762Z,99662.44
2022-12-24T17:03:24.312Z,99654.72
2022-12-24T17:05:53.015Z,99658.34
2022-12-24T17:08:22.434Z,99659.75
2022-12-24T17:10:52.740Z,99663.84
2022-12-24T17:13:21.420Z,99677.16
2022-12-24T17:15:50.919Z,99669.66
2022-12-24T17:18:19.588Z,99673.69
2022-12-24T17:21:02.078Z,99674.59
2022-12-24T17:23:31.543Z,99685.72
2022-12-24T17:26:01.263Z,99688.38
2022-12-24T17:28:30.745Z,99691.53
2022-12-24T17:30:59.428Z,99697.66
2022-12-24T17:33:28.870Z,99697.47
2022-12-24T17:35:58.207Z,99701.22
2022-12-24T17:38:27.835Z,99705.53
2022-12-24T17:41:13.685Z,99699.38
2022-12-24T17:43:43.312Z,99713.69
2022-12-24T17:46:25.366Z,99717.72
2022-12-24T17:48:56.224Z,99716.66
2022-12-24T17:51:25.753Z,99709.78
2022-12-24T17:53:54.512Z,99719.50
2022-12-24T17:56:24.061Z,99719.19
2022-12-24T17:58:53.841Z,99725.75
2022-12-24T18:01:30.593Z,99731.94
2022-12-24T18:04:03.162Z,99739.28
2022-12-24T18:06:32.769Z,99733.38
2022-12-24T18:09:02.327Z,99742.97
2022-12-24T18:11:36.586Z,99747.53
2022-12-24T18:14:06.464Z,99742.34
2022-12-24T18:16:40.107Z,99741.94
2022-12-24T18:19:12.799Z,99741.41
2022-12-24T18:21:41.358Z,99743.44
2022-12-24T18:24:13.287Z,99746.59
2022-12-24T18:26:48.688Z,99751.31
2022-12-24T18:29:18.386Z,99746.28
2022-12-24T18:31:47.912Z,99754.53
2022-12-24T18:34:18.547Z,99758.69
2022-12-24T18:36:51.310Z,99757.94
2022-12-24T18:39:24.526Z,99751.69
2022-12-24T18:41:54.016Z,99760.88
2022-12-24T18:44:25.522Z,99765.38
2022-12-24T18:46:55.622Z,99759.97
2022-12-24T18:49:25.103Z,99762.22
2022-12-24T18:51:54.572Z,99760.06
2022-12-24T18:54:24.319Z,99766.72
2022-12-24T18:56:53.945Z,99774.38
2022-12-24T18:59:23.762Z,99777.53
2022-12-24T19:01:53.806Z,99779.97
2022-12-24T19:04:23.527Z,99784.16
2022-12-24T19:06:53.709Z,99785.19
2022-12-24T19:09:23.954Z,99779.13
2022-12-24T19:11:53.427Z,99785.16
2022-12-24T19:14:22.972Z,99797.81
2022-12-24T19:16:52.523Z,99800.47
2022-12-24T19:19:24.235Z,99806.53
2022-12-24T19:21:53.843Z,99823.16
2022-12-24T19:24:22.183Z,99824.19
2022-12-24T19:26:50.755Z,99824.22
2022-12-24T19:29:19.724Z,99822.59
2022-12-24T19:31:49.532Z,99825.34
2022-12-24T19:34:19.473Z,99826.31
2022-12-24T19:36:49.134Z,99829.94
2022-12-24T19:39:19.845Z,99818.22
2022-12-24T19:41:49.436Z,99821.03
2022-12-24T19:44:18.954Z,99825.09
2022-12-24T19:46:48.397Z,99826.34
2022-12-24T19:49:17.272Z,99828.78
2022-12-24T19:51:48.108Z,99829.25
2022-12-24T19:54:19.372Z,99827.72
2022-12-24T19:56:48.975Z,99836.25
2022-12-24T19:59:18.117Z,99834.03
2022-12-24T20:01:47.729Z,99844.84
2022-12-24T20:04:18.951Z,99843.34
2022-12-24T20:06:49.799Z,99843.72
2022-12-24T20:09:20.679Z,99839.28
2022-12-24T20:11:51.564Z,99836.22
2022-12-24T20:14:21.079Z,99833.72
2022-12-24T20:16:51.316Z,99848.19
2022-12-24T20:19:20.780Z,99848.63
2022-12-24T20:21:49.893Z,99852.25
2022-12-24T20:24:18.904Z,99850.91
2022-12-24T20:26:48.460Z,99846.91
2022-12-24T20:29:17.142Z,99854.88
2022-12-24T20:31:46.341Z,99850.75
2022-12-24T20:34:15.910Z,99854.50
2022-12-24T20:36:44.575Z,99866.34
2022-12-24T20:39:13.395Z,99878.69
2022-12-24T20:41:42.798Z,99868.91
2022-12-24T20:44:13.503Z,99866.63
2022-12-24T20:46:42.951Z,99873.19
2022-12-24T20:49:13.246Z,99868.25
2022-12-24T20:51:41.974Z,99875.31
2022-12-24T20:54:12.121Z,99872.59
2022-12-24T20:56:40.726Z,99863.81
2022-12-24T20:59:10.159Z,99872.97
2022-12-24T21:01:39.967Z,99870.63
2022-12-24T21:04:11.782Z,99874.94
2022-12-24T21:06:40.450Z,99875.19
2022-12-24T21:09:09.785Z,99876.78
2022-12-24T21:11:48.181Z,99866.41
2022-12-24T21:14:27.698Z,99876.22
2022-12-24T21:16:56.702Z,99879.59
2022-12-24T21:19:26.270Z,99885.25
2022-12-24T21:21:55.720Z,99888.13
2022-12-24T21:24:25.311Z,99887.03
2022-12-24T21:26:54.889Z,99890.84
2022-12-24T21:29:24.401Z,99886.88
2022-12-24T21:31:53.861Z,99887.34
2022-12-24T21:34:23.579Z,99887.44
2022-12-24T21:36:53.010Z,99889.16
2022-12-24T21:39:22.767Z,99888.63
2022-12-24T21:41:52.256Z,99896.03
2022-12-24T21:44:21.783Z,99894.53
2022-12-24T21:46:51.281Z,99903.63
2022-12-24T21:49:38.611Z,99905.56
2022-12-24T21:52:08.092Z,99910.03
2022-12-24T21:54:38.606Z,99909.44
2022-12-24T21:57:28.087Z,99906.44
2022-12-24T22:00:17.947Z,99917.09
2022-12-24T22:02:52.322Z,99923.75
2022-12-24T22:05:23.512Z,99928.75
2022-12-24T22:08:13.670Z,99929.97
2022-12-24T22:11:01.758Z,99940.72
2022-12-24T22:13:32.490Z,99919.88
2022-12-24T22:16:01.957Z,99925.25
2022-12-24T22:18:29.680Z,99925.94
2022-12-24T22:21:03.216Z,99925.56
2022-12-24T22:23:37.093Z,99927.31
2022-12-24T22:26:18.909Z,99927.00
2022-12-24T22:28:47.521Z,99922.31
2022-12-24T22:31:23.996Z,99914.03
2022-12-24T22:33:55.429Z,99917.81
2022-12-24T22:36:25.159Z,99908.34
2022-12-24T22:38:55.292Z,99899.81
2022-12-24T22:41:24.819Z,99903.97
2022-12-24T22:43:54.349Z,99897.25
2022-12-24T22:46:24.149Z,99910.94
2022-12-24T22:48:53.660Z,99907.47
2022-12-24T22:51:23.479Z,99906.78
2022-12-24T22:53:52.041Z,99911.44
2022-12-24T22:56:23.391Z,99923.94
2022-12-24T22:58:56.544Z,99931.81
2022-12-24T23:01:39.290Z,99935.50
2022-12-24T23:04:09.460Z,99934.78
2022-12-24T23:06:38.815Z,99929.50
2022-12-24T23:09:12.631Z,99931.69
2022-12-24T23:11:44.025Z,99932.41
2022-12-24T23:14:39.300Z,99931.56
2022-12-24T23:17:10.047Z,99941.69
2022-12-24T23:19:39.776Z,99938.50
2022-12-24T23:22:10.488Z,99951.22
2022-12-24T23:24:41.465Z,99946.38
2022-12-24T23:27:11.423Z,99953.78
2022-12-24T23:29:40.177Z,99949.19
2022-12-24T23:32:08.862Z,99944.72
2022-12-24T23:34:37.481Z,99953.53
2022-12-24T23:37:06.119Z,99943.84
2022-12-24T23:39:34.778Z,99952.22
2022-12-24T23:42:03.601Z,99951.81
2022-12-24T23:44:33.083Z,99958.75
2022-12-24T23:47:02.650Z,99964.03
2022-12-24T23:49:32.283Z,99967.06
2022-12-24T23:51:59.986Z,99965.34
2022-12-24T23:54:29.937Z,99950.69
2022-12-24T23:56:58.529Z,99941.88
2022-12-24T23:59:28.119Z,99950.47
